sensor_id;sensor_type;location;lat;lon;timestamp;P1;durP1;ratioP1;P2;durP2;ratioP2
36391;SDS011;22639;42.690;23.356;2023-04-25T00:00:36;3.50;;;2.07;;
36391;SDS011;22639;42.690;23.356;2023-04-25T00:04:01;2.07;;;1.87;;
36391;SDS011;22639;42.690;23.356;2023-04-25T00:07:26;3.07;;;2.60;;
36391;SDS011;22639;42.690;23.356;2023-04-25T00:10:50;3.37;;;2.30;;
36391;SDS011;22639;42.690;23.356;2023-04-25T00:14:14;2.73;;;2.20;;
36391;SDS011;22639;42.690;23.356;2023-04-25T00:17:38;3.80;;;2.50;;
36391;SDS011;22639;42.690;23.356;2023-04-25T00:21:02;3.23;;;2.10;;
36391;SDS011;22639;42.690;23.356;2023-04-25T00:24:26;3.67;;;2.30;;
36391;SDS011;22639;42.690;23.356;2023-04-25T00:27:50;5.17;;;3.33;;
36391;SDS011;22639;42.690;23.356;2023-04-25T00:31:14;3.73;;;2.33;;
36391;SDS011;22639;42.690;23.356;2023-04-25T00:34:37;2.73;;;2.37;;
36391;SDS011;22639;42.690;23.356;2023-04-25T00:38:01;4.03;;;2.30;;
36391;SDS011;22639;42.690;23.356;2023-04-25T00:41:26;4.47;;;3.07;;
36391;SDS011;22639;42.690;23.356;2023-04-25T00:44:50;6.83;;;3.17;;
36391;SDS011;22639;42.690;23.356;2023-04-25T00:48:15;3.67;;;2.07;;
36391;SDS011;22639;42.690;23.356;2023-04-25T00:51:42;3.33;;;2.30;;
36391;SDS011;22639;42.690;23.356;2023-04-25T00:55:08;2.63;;;1.73;;
36391;SDS011;22639;42.690;23.356;2023-04-25T00:58:33;3.43;;;2.20;;
36391;SDS011;22639;42.690;23.356;2023-04-25T01:01:58;3.87;;;2.10;;
36391;SDS011;22639;42.690;23.356;2023-04-25T01:05:22;3.63;;;1.97;;
36391;SDS011;22639;42.690;23.356;2023-04-25T01:08:47;2.50;;;1.77;;
36391;SDS011;22639;42.690;23.356;2023-04-25T01:12:11;2.03;;;1.73;;
36391;SDS011;22639;42.690;23.356;2023-04-25T01:15:35;2.67;;;1.73;;
36391;SDS011;22639;42.690;23.356;2023-04-25T01:18:59;4.90;;;2.73;;
36391;SDS011;22639;42.690;23.356;2023-04-25T01:22:23;6.73;;;4.23;;
36391;SDS011;22639;42.690;23.356;2023-04-25T01:25:48;6.07;;;4.67;;
36391;SDS011;22639;42.690;23.356;2023-04-25T01:29:16;7.50;;;5.83;;
36391;SDS011;22639;42.690;23.356;2023-04-25T01:32:41;4.23;;;3.10;;
36391;SDS011;22639;42.690;23.356;2023-04-25T01:36:05;3.90;;;3.30;;
36391;SDS011;22639;42.690;23.356;2023-04-25T01:39:29;5.63;;;4.37;;
36391;SDS011;22639;42.690;23.356;2023-04-25T01:42:53;6.70;;;4.47;;
36391;SDS011;22639;42.690;23.356;2023-04-25T01:46:17;3.23;;;1.80;;
36391;SDS011;22639;42.690;23.356;2023-04-25T01:49:41;2.70;;;1.90;;
36391;SDS011;22639;42.690;23.356;2023-04-25T01:53:06;3.17;;;2.10;;
36391;SDS011;22639;42.690;23.356;2023-04-25T01:56:30;2.60;;;2.10;;
36391;SDS011;22639;42.690;23.356;2023-04-25T01:59:57;3.40;;;2.00;;
36391;SDS011;22639;42.690;23.356;2023-04-25T02:03:22;3.90;;;3.00;;
36391;SDS011;22639;42.690;23.356;2023-04-25T02:06:46;6.43;;;3.57;;
36391;SDS011;22639;42.690;23.356;2023-04-25T02:10:09;5.07;;;3.43;;
36391;SDS011;22639;42.690;23.356;2023-04-25T02:13:33;3.10;;;2.23;;
36391;SDS011;22639;42.690;23.356;2023-04-25T02:16:57;3.33;;;2.63;;
36391;SDS011;22639;42.690;23.356;2023-04-25T02:20:22;3.73;;;2.77;;
36391;SDS011;22639;42.690;23.356;2023-04-25T02:23:46;6.80;;;4.40;;
36391;SDS011;22639;42.690;23.356;2023-04-25T02:27:10;2.93;;;2.30;;
36391;SDS011;22639;42.690;23.356;2023-04-25T02:30:35;3.30;;;3.00;;
36391;SDS011;22639;42.690;23.356;2023-04-25T02:33:59;4.80;;;3.60;;
36391;SDS011;22639;42.690;23.356;2023-04-25T02:37:28;5.07;;;3.13;;
36391;SDS011;22639;42.690;23.356;2023-04-25T02:40:52;4.50;;;2.63;;
36391;SDS011;22639;42.690;23.356;2023-04-25T02:44:17;4.57;;;3.57;;
36391;SDS011;22639;42.690;23.356;2023-04-25T02:47:40;4.90;;;3.00;;
36391;SDS011;22639;42.690;23.356;2023-04-25T02:51:04;3.10;;;2.60;;
36391;SDS011;22639;42.690;23.356;2023-04-25T02:54:28;4.30;;;2.97;;
36391;SDS011;22639;42.690;23.356;2023-04-25T02:57:52;4.57;;;2.93;;
36391;SDS011;22639;42.690;23.356;2023-04-25T03:01:16;3.90;;;2.43;;
36391;SDS011;22639;42.690;23.356;2023-04-25T03:04:40;3.50;;;2.87;;
36391;SDS011;22639;42.690;23.356;2023-04-25T03:08:04;4.40;;;2.63;;
36391;SDS011;22639;42.690;23.356;2023-04-25T03:11:28;5.20;;;3.77;;
36391;SDS011;22639;42.690;23.356;2023-04-25T03:14:52;3.97;;;2.50;;
36391;SDS011;22639;42.690;23.356;2023-04-25T03:18:16;3.73;;;2.63;;
36391;SDS011;22639;42.690;23.356;2023-04-25T03:21:43;3.83;;;2.33;;
36391;SDS011;22639;42.690;23.356;2023-04-25T03:25:07;5.70;;;3.00;;
36391;SDS011;22639;42.690;23.356;2023-04-25T03:28:31;5.70;;;2.77;;
36391;SDS011;22639;42.690;23.356;2023-04-25T03:31:55;11.73;;;6.40;;
36391;SDS011;22639;42.690;23.356;2023-04-25T03:35:20;6.27;;;4.50;;
36391;SDS011;22639;42.690;23.356;2023-04-25T03:38:44;3.97;;;2.60;;
36391;SDS011;22639;42.690;23.356;2023-04-25T03:42:08;4.10;;;2.87;;
36391;SDS011;22639;42.690;23.356;2023-04-25T03:45:10;4.57;;;3.13;;
36391;SDS011;22639;42.690;23.356;2023-04-25T03:48:34;5.57;;;4.03;;
36391;SDS011;22639;42.690;23.356;2023-04-25T03:51:55;4.07;;;2.93;;
36391;SDS011;22639;42.690;23.356;2023-04-25T03:55:18;4.33;;;3.33;;
36391;SDS011;22639;42.690;23.356;2023-04-25T03:58:42;5.60;;;4.53;;
36391;SDS011;22639;42.690;23.356;2023-04-25T04:02:06;6.27;;;4.27;;
36391;SDS011;22639;42.690;23.356;2023-04-25T04:05:30;9.23;;;5.67;;
36391;SDS011;22639;42.690;23.356;2023-04-25T04:08:33;7.50;;;4.53;;
36391;SDS011;22639;42.690;23.356;2023-04-25T04:11:57;7.80;;;5.83;;
36391;SDS011;22639;42.690;23.356;2023-04-25T04:15:21;8.82;;;5.78;;
36391;SDS011;22639;42.690;23.356;2023-04-25T04:18:15;7.35;;;5.40;;
36391;SDS011;22639;42.690;23.356;2023-04-25T04:21:39;7.63;;;5.73;;
36391;SDS011;22639;42.690;23.356;2023-04-25T04:25:03;5.23;;;4.03;;
36391;SDS011;22639;42.690;23.356;2023-04-25T04:28:27;6.90;;;5.40;;
36391;SDS011;22639;42.690;23.356;2023-04-25T04:31:54;9.80;;;5.03;;
36391;SDS011;22639;42.690;23.356;2023-04-25T04:35:18;6.97;;;5.13;;
36391;SDS011;22639;42.690;23.356;2023-04-25T04:38:44;7.30;;;5.10;;
36391;SDS011;22639;42.690;23.356;2023-04-25T04:42:08;6.57;;;4.70;;
36391;SDS011;22639;42.690;23.356;2023-04-25T04:45:35;7.43;;;4.40;;
36391;SDS011;22639;42.690;23.356;2023-04-25T04:49:04;6.40;;;4.33;;
36391;SDS011;22639;42.690;23.356;2023-04-25T04:52:32;8.33;;;4.73;;
36391;SDS011;22639;42.690;23.356;2023-04-25T04:55:58;7.33;;;5.47;;
36391;SDS011;22639;42.690;23.356;2023-04-25T04:59:22;8.40;;;5.93;;
36391;SDS011;22639;42.690;23.356;2023-04-25T05:02:46;9.13;;;5.03;;
36391;SDS011;22639;42.690;23.356;2023-04-25T05:06:10;8.80;;;5.80;;
36391;SDS011;22639;42.690;23.356;2023-04-25T05:09:34;8.33;;;5.50;;
36391;SDS011;22639;42.690;23.356;2023-04-25T05:12:58;9.10;;;5.80;;
36391;SDS011;22639;42.690;23.356;2023-04-25T05:15:28;7.10;;;5.50;;
36391;SDS011;22639;42.690;23.356;2023-04-25T05:18:52;8.00;;;5.47;;
36391;SDS011;22639;42.690;23.356;2023-04-25T05:22:15;8.10;;;6.20;;
36391;SDS011;22639;42.690;23.356;2023-04-25T05:25:40;8.40;;;6.10;;
36391;SDS011;22639;42.690;23.356;2023-04-25T05:29:04;8.00;;;5.80;;
36391;SDS011;22639;42.690;23.356;2023-04-25T05:32:29;7.43;;;5.57;;
36391;SDS011;22639;42.690;23.356;2023-04-25T05:35:53;6.10;;;4.77;;
36391;SDS011;22639;42.690;23.356;2023-04-25T05:39:17;5.70;;;4.50;;
36391;SDS011;22639;42.690;23.356;2023-04-25T05:42:41;6.23;;;4.33;;
36391;SDS011;22639;42.690;23.356;2023-04-25T05:46:10;5.97;;;4.23;;
36391;SDS011;22639;42.690;23.356;2023-04-25T05:49:34;4.67;;;3.50;;
36391;SDS011;22639;42.690;23.356;2023-04-25T05:52:58;5.87;;;4.30;;
36391;SDS011;22639;42.690;23.356;2023-04-25T05:56:22;8.37;;;4.40;;
36391;SDS011;22639;42.690;23.356;2023-04-25T05:59:47;7.10;;;3.43;;
36391;SDS011;22639;42.690;23.356;2023-04-25T06:03:11;7.00;;;4.33;;
36391;SDS011;22639;42.690;23.356;2023-04-25T06:06:35;4.95;;;4.10;;
36391;SDS011;22639;42.690;23.356;2023-04-25T06:09:59;5.95;;;4.45;;
36391;SDS011;22639;42.690;23.356;2023-04-25T06:13:23;6.25;;;3.55;;
36391;SDS011;22639;42.690;23.356;2023-04-25T06:16:47;7.47;;;4.60;;
36391;SDS011;22639;42.690;23.356;2023-04-25T06:20:11;9.00;;;4.65;;
36391;SDS011;22639;42.690;23.356;2023-04-25T06:23:35;6.15;;;4.68;;
36391;SDS011;22639;42.690;23.356;2023-04-25T06:26:59;6.07;;;4.93;;
36391;SDS011;22639;42.690;23.356;2023-04-25T06:30:25;7.53;;;5.38;;
36391;SDS011;22639;42.690;23.356;2023-04-25T06:33:49;7.05;;;4.70;;
36391;SDS011;22639;42.690;23.356;2023-04-25T06:37:13;5.32;;;3.80;;
36391;SDS011;22639;42.690;23.356;2023-04-25T06:40:37;4.25;;;3.55;;
36391;SDS011;22639;42.690;23.356;2023-04-25T06:44:01;4.43;;;4.00;;
36391;SDS011;22639;42.690;23.356;2023-04-25T06:47:25;6.95;;;4.03;;
36391;SDS011;22639;42.690;23.356;2023-04-25T06:50:51;4.88;;;3.67;;
36391;SDS011;22639;42.690;23.356;2023-04-25T06:54:15;5.15;;;4.57;;
36391;SDS011;22639;42.690;23.356;2023-04-25T06:57:39;4.35;;;3.17;;
36391;SDS011;22639;42.690;23.356;2023-04-25T07:01:03;6.57;;;4.07;;
36391;SDS011;22639;42.690;23.356;2023-04-25T07:04:28;4.35;;;3.92;;
36391;SDS011;22639;42.690;23.356;2023-04-25T07:07:52;6.38;;;4.50;;
36391;SDS011;22639;42.690;23.356;2023-04-25T07:11:16;4.38;;;3.50;;
36391;SDS011;22639;42.690;23.356;2023-04-25T07:14:40;4.65;;;3.65;;
36391;SDS011;22639;42.690;23.356;2023-04-25T07:18:04;5.20;;;4.03;;
36391;SDS011;22639;42.690;23.356;2023-04-25T07:21:28;4.47;;;3.25;;
36391;SDS011;22639;42.690;23.356;2023-04-25T07:24:52;4.90;;;3.80;;
36391;SDS011;22639;42.690;23.356;2023-04-25T07:28:16;8.60;;;4.35;;
36391;SDS011;22639;42.690;23.356;2023-04-25T07:31:40;5.30;;;3.97;;
36391;SDS011;22639;42.690;23.356;2023-04-25T07:35:04;4.80;;;3.75;;
36391;SDS011;22639;42.690;23.356;2023-04-25T07:38:28;5.13;;;3.47;;
36391;SDS011;22639;42.690;23.356;2023-04-25T07:41:52;5.40;;;3.80;;
36391;SDS011;22639;42.690;23.356;2023-04-25T07:45:17;5.57;;;4.70;;
36391;SDS011;22639;42.690;23.356;2023-04-25T07:48:41;4.82;;;4.22;;
36391;SDS011;22639;42.690;23.356;2023-04-25T07:52:05;4.65;;;4.25;;
36391;SDS011;22639;42.690;23.356;2023-04-25T07:55:29;8.20;;;4.65;;
36391;SDS011;22639;42.690;23.356;2023-04-25T07:58:53;5.45;;;3.80;;
36391;SDS011;22639;42.690;23.356;2023-04-25T08:02:17;5.53;;;4.55;;
36391;SDS011;22639;42.690;23.356;2023-04-25T08:05:41;5.70;;;4.13;;
36391;SDS011;22639;42.690;23.356;2023-04-25T08:09:05;9.43;;;3.92;;
36391;SDS011;22639;42.690;23.356;2023-04-25T08:12:30;4.32;;;3.92;;
36391;SDS011;22639;42.690;23.356;2023-04-25T08:15:54;4.57;;;3.90;;
36391;SDS011;22639;42.690;23.356;2023-04-25T08:19:18;3.75;;;3.35;;
36391;SDS011;22639;42.690;23.356;2023-04-25T08:22:42;4.85;;;3.97;;
36391;SDS011;22639;42.690;23.356;2023-04-25T08:26:07;4.50;;;3.83;;
36391;SDS011;22639;42.690;23.356;2023-04-25T08:29:32;5.65;;;3.92;;
36391;SDS011;22639;42.690;23.356;2023-04-25T08:32:56;4.40;;;3.42;;
36391;SDS011;22639;42.690;23.356;2023-04-25T08:36:20;3.65;;;3.25;;
36391;SDS011;22639;42.690;23.356;2023-04-25T08:39:44;3.42;;;3.13;;
36391;SDS011;22639;42.690;23.356;2023-04-25T08:43:08;6.88;;;3.67;;
36391;SDS011;22639;42.690;23.356;2023-04-25T08:46:34;4.18;;;3.10;;
36391;SDS011;22639;42.690;23.356;2023-04-25T08:49:59;6.38;;;5.20;;
36391;SDS011;22639;42.690;23.356;2023-04-25T08:53:31;7.68;;;5.45;;
36391;SDS011;22639;42.690;23.356;2023-04-25T08:56:56;8.23;;;6.30;;
36391;SDS011;22639;42.690;23.356;2023-04-25T09:00:21;7.10;;;5.30;;
36391;SDS011;22639;42.690;23.356;2023-04-25T09:03:46;6.63;;;5.88;;
36391;SDS011;22639;42.690;23.356;2023-04-25T09:07:10;6.60;;;5.63;;
36391;SDS011;22639;42.690;23.356;2023-04-25T09:10:34;6.20;;;5.60;;
36391;SDS011;22639;42.690;23.356;2023-04-25T09:14:11;6.55;;;4.53;;
36391;SDS011;22639;42.690;23.356;2023-04-25T09:17:36;5.10;;;4.57;;
36391;SDS011;22639;42.690;23.356;2023-04-25T09:21:08;6.20;;;4.30;;
36391;SDS011;22639;42.690;23.356;2023-04-25T09:24:39;7.03;;;4.28;;
36391;SDS011;22639;42.690;23.356;2023-04-25T09:28:05;8.50;;;4.15;;
36391;SDS011;22639;42.690;23.356;2023-04-25T09:31:32;3.17;;;2.88;;
36391;SDS011;22639;42.690;23.356;2023-04-25T09:34:57;4.15;;;3.40;;
36391;SDS011;22639;42.690;23.356;2023-04-25T09:38:29;3.30;;;2.95;;
36391;SDS011;22639;42.690;23.356;2023-04-25T09:41:53;3.42;;;2.42;;
36391;SDS011;22639;42.690;23.356;2023-04-25T09:45:19;3.58;;;3.17;;
36391;SDS011;22639;42.690;23.356;2023-04-25T09:48:49;3.42;;;3.00;;
36391;SDS011;22639;42.690;23.356;2023-04-25T09:52:17;3.15;;;2.85;;
36391;SDS011;22639;42.690;23.356;2023-04-25T09:55:41;3.17;;;2.97;;
36391;SDS011;22639;42.690;23.356;2023-04-25T09:59:07;3.03;;;2.60;;
36391;SDS011;22639;42.690;23.356;2023-04-25T10:02:37;2.92;;;2.63;;
36391;SDS011;22639;42.690;23.356;2023-04-25T10:06:08;2.53;;;2.33;;
36391;SDS011;22639;42.690;23.356;2023-04-25T10:09:33;2.45;;;2.10;;
36391;SDS011;22639;42.690;23.356;2023-04-25T10:13:02;3.08;;;2.83;;
36391;SDS011;22639;42.690;23.356;2023-04-25T10:16:26;3.13;;;2.70;;
36391;SDS011;22639;42.690;23.356;2023-04-25T10:19:52;4.50;;;2.72;;
36391;SDS011;22639;42.690;23.356;2023-04-25T10:23:16;3.40;;;2.70;;
36391;SDS011;22639;42.690;23.356;2023-04-25T10:26:41;3.78;;;2.70;;
36391;SDS011;22639;42.690;23.356;2023-04-25T10:33:37;1.63;;;1.15;;
36391;SDS011;22639;42.690;23.356;2023-04-25T10:37:05;1.25;;;1.05;;
36391;SDS011;22639;42.690;23.356;2023-04-25T10:40:36;0.98;;;0.88;;
36391;SDS011;22639;42.690;23.356;2023-04-25T10:44:36;2.25;;;1.58;;
36391;SDS011;22639;42.690;23.356;2023-04-25T10:48:25;1.25;;;0.93;;
36391;SDS011;22639;42.690;23.356;2023-04-25T10:52:12;2.30;;;1.45;;
36391;SDS011;22639;42.690;23.356;2023-04-25T10:55:49;0.80;;;0.80;;
36391;SDS011;22639;42.690;23.356;2023-04-25T10:59:14;1.30;;;0.98;;
36391;SDS011;22639;42.690;23.356;2023-04-25T11:02:47;1.48;;;1.27;;
36391;SDS011;22639;42.690;23.356;2023-04-25T11:07:00;1.92;;;1.42;;
36391;SDS011;22639;42.690;23.356;2023-04-25T11:10:16;1.40;;;1.30;;
36391;SDS011;22639;42.690;23.356;2023-04-25T11:13:47;3.15;;;2.28;;
36391;SDS011;22639;42.690;23.356;2023-04-25T11:17:11;1.75;;;1.30;;
36391;SDS011;22639;42.690;23.356;2023-04-25T11:20:34;4.00;;;1.25;;
36391;SDS011;22639;42.690;23.356;2023-04-25T11:23:59;4.18;;;0.95;;
36391;SDS011;22639;42.690;23.356;2023-04-25T11:27:29;2.00;;;0.73;;
36391;SDS011;22639;42.690;23.356;2023-04-25T11:30:53;0.70;;;0.68;;
36391;SDS011;22639;42.690;23.356;2023-04-25T11:34:17;1.70;;;1.20;;
36391;SDS011;22639;42.690;23.356;2023-04-25T11:37:42;2.00;;;1.23;;
36391;SDS011;22639;42.690;23.356;2023-04-25T11:41:06;3.08;;;1.02;;
36391;SDS011;22639;42.690;23.356;2023-04-25T11:44:31;1.58;;;0.85;;
36391;SDS011;22639;42.690;23.356;2023-04-25T11:47:56;0.98;;;0.80;;
36391;SDS011;22639;42.690;23.356;2023-04-25T11:51:20;1.30;;;1.20;;
36391;SDS011;22639;42.690;23.356;2023-04-25T11:54:44;1.20;;;0.47;;
36391;SDS011;22639;42.690;23.356;2023-04-25T11:58:08;0.73;;;0.35;;
36391;SDS011;22639;42.690;23.356;2023-04-25T12:01:33;0.50;;;0.50;;
36391;SDS011;22639;42.690;23.356;2023-04-25T12:04:59;1.30;;;0.70;;
36391;SDS011;22639;42.690;23.356;2023-04-25T12:08:28;0.93;;;0.60;;
36391;SDS011;22639;42.690;23.356;2023-04-25T12:11:55;0.47;;;0.47;;
36391;SDS011;22639;42.690;23.356;2023-04-25T12:15:28;1.83;;;0.63;;
36391;SDS011;22639;42.690;23.356;2023-04-25T12:18:52;0.50;;;0.50;;
36391;SDS011;22639;42.690;23.356;2023-04-25T12:22:22;1.08;;;0.70;;
36391;SDS011;22639;42.690;23.356;2023-04-25T12:25:53;0.82;;;0.50;;
36391;SDS011;22639;42.690;23.356;2023-04-25T12:29:22;2.40;;;0.77;;
36391;SDS011;22639;42.690;23.356;2023-04-25T12:32:47;1.75;;;0.70;;
36391;SDS011;22639;42.690;23.356;2023-04-25T12:36:12;0.75;;;0.63;;
36391;SDS011;22639;42.690;23.356;2023-04-25T12:39:36;0.93;;;0.75;;
36391;SDS011;22639;42.690;23.356;2023-04-25T12:43:00;1.50;;;0.90;;
36391;SDS011;22639;42.690;23.356;2023-04-25T12:46:27;0.70;;;0.50;;
36391;SDS011;22639;42.690;23.356;2023-04-25T12:49:51;1.08;;;0.82;;
36391;SDS011;22639;42.690;23.356;2023-04-25T12:53:19;0.68;;;0.60;;
36391;SDS011;22639;42.690;23.356;2023-04-25T12:56:43;1.48;;;0.85;;
36391;SDS011;22639;42.690;23.356;2023-04-25T13:00:08;1.98;;;1.20;;
36391;SDS011;22639;42.690;23.356;2023-04-25T13:03:32;2.53;;;1.65;;
36391;SDS011;22639;42.690;23.356;2023-04-25T13:06:56;0.93;;;0.83;;
36391;SDS011;22639;42.690;23.356;2023-04-25T13:10:20;0.82;;;0.70;;
36391;SDS011;22639;42.690;23.356;2023-04-25T13:13:45;1.38;;;0.73;;
36391;SDS011;22639;42.690;23.356;2023-04-25T13:17:09;1.55;;;0.93;;
36391;SDS011;22639;42.690;23.356;2023-04-25T13:20:33;2.80;;;1.30;;
36391;SDS011;22639;42.690;23.356;2023-04-25T13:23:57;7.30;;;1.10;;
36391;SDS011;22639;42.690;23.356;2023-04-25T13:27:21;2.10;;;1.63;;
36391;SDS011;22639;42.690;23.356;2023-04-25T13:30:45;1.30;;;1.20;;
36391;SDS011;22639;42.690;23.356;2023-04-25T13:34:09;1.57;;;1.37;;
36391;SDS011;22639;42.690;23.356;2023-04-25T13:37:38;0.95;;;0.85;;
36391;SDS011;22639;42.690;23.356;2023-04-25T13:41:03;2.27;;;1.00;;
36391;SDS011;22639;42.690;23.356;2023-04-25T13:44:28;3.33;;;1.47;;
36391;SDS011;22639;42.690;23.356;2023-04-25T13:47:52;1.63;;;1.20;;
36391;SDS011;22639;42.690;23.356;2023-04-25T13:51:16;2.93;;;1.57;;
36391;SDS011;22639;42.690;23.356;2023-04-25T13:54:40;2.73;;;1.43;;
36391;SDS011;22639;42.690;23.356;2023-04-25T13:58:04;0.80;;;0.80;;
36391;SDS011;22639;42.690;23.356;2023-04-25T14:01:28;1.40;;;1.30;;
36391;SDS011;22639;42.690;23.356;2023-04-25T14:04:52;1.50;;;1.40;;
36391;SDS011;22639;42.690;23.356;2023-04-25T14:08:16;2.20;;;2.00;;
36391;SDS011;22639;42.690;23.356;2023-04-25T14:11:40;2.80;;;1.63;;
36391;SDS011;22639;42.690;23.356;2023-04-25T14:15:05;1.45;;;1.25;;
36391;SDS011;22639;42.690;23.356;2023-04-25T14:18:30;2.05;;;1.63;;
36391;SDS011;22639;42.690;23.356;2023-04-25T14:21:54;2.45;;;1.38;;
36391;SDS011;22639;42.690;23.356;2023-04-25T14:25:19;2.60;;;1.33;;
36391;SDS011;22639;42.690;23.356;2023-04-25T14:28:43;1.50;;;1.38;;
36391;SDS011;22639;42.690;23.356;2023-04-25T14:32:07;2.25;;;1.73;;
36391;SDS011;22639;42.690;23.356;2023-04-25T14:35:31;1.80;;;1.08;;
36391;SDS011;22639;42.690;23.356;2023-04-25T14:38:56;2.45;;;1.38;;
36391;SDS011;22639;42.690;23.356;2023-04-25T14:42:20;1.30;;;1.20;;
36391;SDS011;22639;42.690;23.356;2023-04-25T14:45:44;1.67;;;1.33;;
36391;SDS011;22639;42.690;23.356;2023-04-25T14:49:08;0.95;;;0.82;;
36391;SDS011;22639;42.690;23.356;2023-04-25T14:52:33;1.40;;;1.30;;
36391;SDS011;22639;42.690;23.356;2023-04-25T14:55:57;1.80;;;1.45;;
36391;SDS011;22639;42.690;23.356;2023-04-25T14:59:22;1.17;;;1.08;;
36391;SDS011;22639;42.690;23.356;2023-04-25T15:02:47;1.60;;;1.42;;
36391;SDS011;22639;42.690;23.356;2023-04-25T15:06:11;2.05;;;1.50;;
36391;SDS011;22639;42.690;23.356;2023-04-25T15:09:36;2.13;;;1.40;;
36391;SDS011;22639;42.690;23.356;2023-04-25T15:13:00;1.80;;;1.33;;
36391;SDS011;22639;42.690;23.356;2023-04-25T15:16:24;1.48;;;1.33;;
36391;SDS011;22639;42.690;23.356;2023-04-25T15:19:48;3.13;;;2.22;;
36391;SDS011;22639;42.690;23.356;2023-04-25T15:23:12;2.75;;;1.20;;
36391;SDS011;22639;42.690;23.356;2023-04-25T15:26:36;2.03;;;1.35;;
36391;SDS011;22639;42.690;23.356;2023-04-25T15:30:07;4.57;;;2.45;;
36391;SDS011;22639;42.690;23.356;2023-04-25T15:33:31;3.50;;;2.67;;
36391;SDS011;22639;42.690;23.356;2023-04-25T15:36:55;2.25;;;1.88;;
36391;SDS011;22639;42.690;23.356;2023-04-25T15:40:19;6.63;;;4.57;;
36391;SDS011;22639;42.690;23.356;2023-04-25T15:43:43;2.50;;;2.20;;
36391;SDS011;22639;42.690;23.356;2023-04-25T15:47:07;2.65;;;1.58;;
36391;SDS011;22639;42.690;23.356;2023-04-25T15:50:32;5.38;;;3.33;;
36391;SDS011;22639;42.690;23.356;2023-04-25T15:53:57;4.70;;;3.90;;
36391;SDS011;22639;42.690;23.356;2023-04-25T15:57:21;3.55;;;2.80;;
36391;SDS011;22639;42.690;23.356;2023-04-25T16:00:46;3.70;;;2.40;;
36391;SDS011;22639;42.690;23.356;2023-04-25T16:04:16;3.40;;;1.63;;
36391;SDS011;22639;42.690;23.356;2023-04-25T16:07:40;2.22;;;1.95;;
36391;SDS011;22639;42.690;23.356;2023-04-25T16:11:05;2.75;;;2.03;;
36391;SDS011;22639;42.690;23.356;2023-04-25T16:14:29;1.67;;;1.15;;
36391;SDS011;22639;42.690;23.356;2023-04-25T16:17:53;1.38;;;1.25;;
36391;SDS011;22639;42.690;23.356;2023-04-25T16:21:17;2.75;;;1.70;;
36391;SDS011;22639;42.690;23.356;2023-04-25T16:23:52;1.23;;;1.05;;
36391;SDS011;22639;42.690;23.356;2023-04-25T16:26:30;1.53;;;1.27;;
36391;SDS011;22639;42.690;23.356;2023-04-25T16:29:26;2.33;;;1.43;;
36391;SDS011;22639;42.690;23.356;2023-04-25T16:32:35;2.20;;;1.20;;
36391;SDS011;22639;42.690;23.356;2023-04-25T16:35:59;4.47;;;1.87;;
36391;SDS011;22639;42.690;23.356;2023-04-25T16:39:23;5.53;;;1.50;;
36391;SDS011;22639;42.690;23.356;2023-04-25T16:42:47;4.80;;;3.57;;
36391;SDS011;22639;42.690;23.356;2023-04-25T16:46:11;2.57;;;1.60;;
36391;SDS011;22639;42.690;23.356;2023-04-25T16:49:35;4.47;;;1.97;;
36391;SDS011;22639;42.690;23.356;2023-04-25T16:52:59;6.33;;;3.77;;
36391;SDS011;22639;42.690;23.356;2023-04-25T16:56:25;5.87;;;3.20;;
36391;SDS011;22639;42.690;23.356;2023-04-25T16:59:49;5.63;;;3.50;;
36391;SDS011;22639;42.690;23.356;2023-04-25T17:03:13;6.90;;;3.30;;
36391;SDS011;22639;42.690;23.356;2023-04-25T17:06:38;4.13;;;2.50;;
36391;SDS011;22639;42.690;23.356;2023-04-25T17:10:01;5.00;;;2.83;;
36391;SDS011;22639;42.690;23.356;2023-04-25T17:13:26;3.80;;;2.57;;
36391;SDS011;22639;42.690;23.356;2023-04-25T17:16:50;7.03;;;4.57;;
36391;SDS011;22639;42.690;23.356;2023-04-25T17:20:14;6.03;;;3.67;;
36391;SDS011;22639;42.690;23.356;2023-04-25T17:23:38;5.93;;;3.63;;
36391;SDS011;22639;42.690;23.356;2023-04-25T17:27:04;5.17;;;3.57;;
36391;SDS011;22639;42.690;23.356;2023-04-25T17:30:28;4.63;;;2.40;;
36391;SDS011;22639;42.690;23.356;2023-04-25T17:33:52;3.23;;;2.77;;
36391;SDS011;22639;42.690;23.356;2023-04-25T17:37:16;3.47;;;1.97;;
36391;SDS011;22639;42.690;23.356;2023-04-25T17:40:40;2.50;;;2.00;;
36391;SDS011;22639;42.690;23.356;2023-04-25T17:44:04;3.03;;;2.63;;
36391;SDS011;22639;42.690;23.356;2023-04-25T17:47:28;2.40;;;2.17;;
36391;SDS011;22639;42.690;23.356;2023-04-25T17:50:52;2.07;;;1.70;;
36391;SDS011;22639;42.690;23.356;2023-04-25T17:54:16;2.83;;;1.83;;
36391;SDS011;22639;42.690;23.356;2023-04-25T17:57:40;3.90;;;3.00;;
36391;SDS011;22639;42.690;23.356;2023-04-25T18:01:04;2.87;;;1.77;;
36391;SDS011;22639;42.690;23.356;2023-04-25T18:04:28;0.93;;;0.77;;
36391;SDS011;22639;42.690;23.356;2023-04-25T18:07:52;1.30;;;1.20;;
36391;SDS011;22639;42.690;23.356;2023-04-25T18:11:16;2.57;;;1.77;;
36391;SDS011;22639;42.690;23.356;2023-04-25T18:14:40;2.63;;;1.83;;
36391;SDS011;22639;42.690;23.356;2023-04-25T18:18:04;1.37;;;1.20;;
36391;SDS011;22639;42.690;23.356;2023-04-25T18:21:35;1.33;;;1.20;;
36391;SDS011;22639;42.690;23.356;2023-04-25T18:25:00;4.90;;;1.20;;
36391;SDS011;22639;42.690;23.356;2023-04-25T18:28:25;1.40;;;1.30;;
36391;SDS011;22639;42.690;23.356;2023-04-25T18:31:49;1.50;;;1.17;;
36391;SDS011;22639;42.690;23.356;2023-04-25T18:35:13;3.13;;;1.40;;
36391;SDS011;22639;42.690;23.356;2023-04-25T18:38:37;1.77;;;1.30;;
36391;SDS011;22639;42.690;23.356;2023-04-25T18:42:01;1.93;;;1.70;;
36391;SDS011;22639;42.690;23.356;2023-04-25T18:45:25;2.40;;;1.57;;
36391;SDS011;22639;42.690;23.356;2023-04-25T18:48:51;4.40;;;2.03;;
36391;SDS011;22639;42.690;23.356;2023-04-25T18:52:15;2.90;;;1.63;;
36391;SDS011;22639;42.690;23.356;2023-04-25T18:55:39;2.27;;;2.07;;
36391;SDS011;22639;42.690;23.356;2023-04-25T18:59:03;2.53;;;2.10;;
36391;SDS011;22639;42.690;23.356;2023-04-25T19:02:30;2.67;;;1.67;;
36391;SDS011;22639;42.690;23.356;2023-04-25T19:05:54;2.60;;;1.80;;
36391;SDS011;22639;42.690;23.356;2023-04-25T19:09:18;2.63;;;1.70;;
36391;SDS011;22639;42.690;23.356;2023-04-25T19:12:42;2.37;;;2.13;;
36391;SDS011;22639;42.690;23.356;2023-04-25T19:16:06;3.57;;;2.57;;
36391;SDS011;22639;42.690;23.356;2023-04-25T19:19:30;3.80;;;2.13;;
36391;SDS011;22639;42.690;23.356;2023-04-25T19:22:54;4.67;;;2.50;;
36391;SDS011;22639;42.690;23.356;2023-04-25T19:26:18;5.80;;;2.97;;
36391;SDS011;22639;42.690;23.356;2023-04-25T19:29:42;6.33;;;3.77;;
36391;SDS011;22639;42.690;23.356;2023-04-25T19:33:06;8.80;;;5.37;;
36391;SDS011;22639;42.690;23.356;2023-04-25T19:36:31;6.17;;;4.43;;
36391;SDS011;22639;42.690;23.356;2023-04-25T19:39:55;4.17;;;3.07;;
36391;SDS011;22639;42.690;23.356;2023-04-25T19:43:19;2.83;;;1.83;;
36391;SDS011;22639;42.690;23.356;2023-04-25T19:46:43;4.77;;;3.10;;
36391;SDS011;22639;42.690;23.356;2023-04-25T19:50:07;5.03;;;2.43;;
36391;SDS011;22639;42.690;23.356;2023-04-25T19:53:33;3.40;;;2.80;;
36391;SDS011;22639;42.690;23.356;2023-04-25T19:56:58;3.43;;;2.80;;
36391;SDS011;22639;42.690;23.356;2023-04-25T20:00:22;4.33;;;3.93;;
36391;SDS011;22639;42.690;23.356;2023-04-25T20:03:46;5.57;;;4.07;;
36391;SDS011;22639;42.690;23.356;2023-04-25T20:07:10;5.77;;;4.23;;
36391;SDS011;22639;42.690;23.356;2023-04-25T20:10:34;7.37;;;4.77;;
36391;SDS011;22639;42.690;23.356;2023-04-25T20:13:58;6.53;;;4.97;;